• Join FlightAware (Why Join?)
  • Login
  • US Flag 
01:47AM EDT


 

Airport Tracker/Info


-or-


 

Live Flight TrackerFlight Track Log ✈ UAL1519 ✈ 19-May-2013 ✈ KEWR - TIST / STT

Flight Track Log - Related Links

Times and Time Zones

All times are in EDT time to prevent confusion due to time zone crossing. See the UAL1519 flight status page for this flight to view local times or setup timezone preferences in your user account.

Time Position Orientation Groundspeed Altitude Reporting Facility
EDT Latitude Longitude Course Direction KTS MPH feet Rate Location/Type
09:54AM 40.6667 -74.1833 207° Southwest 156 180 1,400  Level New York TRACON
09:55AM 40.6167 -74.2167 207° Southwest 199 229 4,300 1,440 Climbing New York TRACON
09:57AM 40.5103 -74.2569 196° South 228 262 6,000 540 Climbing New York Center
09:58AM 40.4342 -74.2231 161° South 245 282 6,000  Level New York Center
09:59AM 40.3747 -74.1900 157° South 256 295 6,000 1,140 Level New York Center
10:00AM 40.2942 -74.1617 165° South 267 307 8,300 2,520 Climbing New York Center
10:01AM 40.2197 -74.1444 170° South 267 307 11,200 2,760 Climbing New York Center
10:02AM 40.1869 -74.0422 113° Southeast 261 300 13,900 2,280 Climbing New York Center
10:03AM 40.1508 -73.9211 111° Southeast 310 357 15,700 1,680 Climbing New York Center
10:04AM 40.1128 -73.7864 110° East 361 415 17,300 1,980 Climbing New York Center
10:05AM 40.0722 -73.6489 111° Southeast 401 461 19,700 1,740 Climbing New York Center
10:06AM 40.0278 -73.5114 113° Southeast 401 461 20,900 600 Climbing New York Center
10:07AM 39.9853 -73.3661 111° Southeast 406 467 20,900 840 Level New York Center
10:08AM 39.9211 -73.2475 125° Southeast 406 467 22,700 1,080 Climbing New York Center
10:09AM 39.8422 -73.1283 131° Southeast 416 479 23,100 1,080 Climbing New York Center
10:10AM 39.7592 -73.0122 133° Southeast 428 493 24,900 1,800 Climbing New York Center
10:11AM 39.6736 -72.8933 133° Southeast 440 506 26,700 1,680 Climbing New York Center
10:12AM 39.5864 -72.7669 132° Southeast 456 525 28,400 1,560 Climbing New York Center
10:13AM 39.4967 -72.6406 133° Southeast 461 531 29,900 1,380 Climbing New York Center
10:14AM 39.4069 -72.5117 132° Southeast 467 537 31,200 1,320 Climbing New York Center
10:15AM 39.3131 -72.3806 133° Southeast 483 556 32,600 1,320 Climbing New York Center
10:16AM 39.2208 -72.2553 134° Southeast 483 556 34,000 1,260 Climbing New York Center
10:17AM 39.1286 -72.1247 132° Southeast 483 556 35,200 1,020 Climbing New York Center
10:18AM 39.0342 -71.9972 134° Southeast 489 563 36,100 900 Climbing New York Center
10:19AM 38.9439 -71.8650 131° Southeast 489 563 37,100 1,020 Climbing New York Center
10:20AM 38.8492 -71.7381 134° Southeast 489 563 38,100 900 Climbing New York Center
10:21AM 38.7542 -71.6089 133° Southeast 489 563 39,000  Climbing New York Center
10:22AM 38.6592 -71.4883 135° Southeast 489 563 38,100 -540 Descending New York Center
10:23AM 38.5681 -71.3544 131° Southeast 489 563 38,000 -120 Descending New York Center
10:24AM 38.4750 -71.2342 135° Southeast 489 563 37,900  Descending New York Center
10:25AM 38.3814 -71.1039 132° Southeast 489 563 38,000  Climbing New York Center
10:26AM 38.2881 -70.9764 133° Southeast 489 563 37,900  Descending New York Center
10:27AM 38.1944 -70.8467 133° Southeast 494 568 38,000  Climbing New York Center
10:28AM 38.0986 -70.7275 136° Southeast 488 562 38,000  Level New York Center
10:29AM 38.0003 -70.6036 135° Southeast 488 562 38,000  Level New York Center
10:30AM 38.0000 -70.5833 153° Southeast 490 564 38,000 -120 Level New York Oceanic (ODAPS)
10:30AM 37.8794 -70.5197 153° Southeast 483 556 37,900  Descending New York Center
10:31AM 37.7561 -70.4439 154° Southeast 488 562 38,000  Climbing New York Center
10:33AM 37.6000 -70.3211 90° East  Level FlightAware Approximate
10:40AM 36.8361 -69.8562 154° Southeast  Level FlightAware Approximate
10:41AM 36.7264 -69.7909 154° Southeast  Level FlightAware Approximate
10:42AM 36.6166 -69.7258 155° Southeast  Level FlightAware Approximate
10:43AM 36.5068 -69.6608 154° Southeast  Level FlightAware Approximate
10:44AM 36.3971 -69.5958 154° Southeast  Level FlightAware Approximate
10:45AM 36.2874 -69.5309 155° Southeast  Level FlightAware Approximate
10:46AM 36.1776 -69.4662 155° Southeast  Level FlightAware Approximate
10:47AM 36.0611 -69.4258 168° South  Level FlightAware Approximate
10:48AM 35.9424 -69.3936 168° South  Level FlightAware Approximate
10:48AM 36.1667 -69.4500 168° South 486 559 38,000  Level New York Oceanic (ODAPS)
10:49AM 35.8237 -69.3615 168° South  Level FlightAware Approximate
10:50AM 35.7049 -69.3295 168° South  Level FlightAware Approximate
10:51AM 35.5862 -69.2975 168° South  Level FlightAware Approximate
10:52AM 35.4674 -69.2657 168° South  Level FlightAware Approximate
10:53AM 35.3487 -69.2340 168° South  Level FlightAware Approximate
10:54AM 34.9762 -69.1328 168° South 486 559 38,000  Level FlightAware Transoceanic
10:55AM 34.8438 -69.0982 168° South 486 559 38,000  Level FlightAware Transoceanic
10:56AM 34.7115 -69.0636 168° South 486 559 38,000  Level FlightAware Transoceanic
10:57AM 34.5791 -69.0291 168° South 486 559 38,000  Level FlightAware Transoceanic
10:58AM 34.4468 -68.9948 168° South 486 559 38,000  Level FlightAware Transoceanic
10:59AM 34.3144 -68.9606 168° South 486 559 38,000  Level FlightAware Transoceanic
11:00AM 34.1820 -68.9265 168° South 486 559 38,000  Level FlightAware Transoceanic
11:01AM 34.0496 -68.8924 168° South 486 559 38,000  Level FlightAware Transoceanic
11:02AM 33.9172 -68.8585 168° South 486 559 38,000  Level FlightAware Transoceanic
11:03AM 33.7848 -68.8247 168° South 486 559 38,000  Level FlightAware Transoceanic
11:04AM 33.6524 -68.7910 168° South 486 559 38,000  Level FlightAware Transoceanic
11:05AM 33.5200 -68.7574 168° South 486 559 38,000  Level FlightAware Transoceanic
11:06AM 33.3876 -68.7239 168° South 486 559 38,000  Level FlightAware Transoceanic
11:07AM 33.2551 -68.6906 168° South 486 559 38,000  Level FlightAware Transoceanic
11:08AM 33.1227 -68.6573 168° South 486 559 38,000  Level FlightAware Transoceanic
11:09AM 32.9902 -68.6241 168° South 486 559 38,000  Level FlightAware Transoceanic
11:10AM 32.8577 -68.5910 168° South 486 559 38,000  Level FlightAware Transoceanic
11:11AM 32.7253 -68.5580 168° South 486 559 38,000  Level FlightAware Transoceanic
11:12AM 32.5928 -68.5251 168° South 486 559 38,000  Level FlightAware Transoceanic
11:13AM 32.4603 -68.4923 168° South 486 559 38,000  Level FlightAware Transoceanic
11:14AM 32.3278 -68.4596 168° South 486 559 38,000  Level FlightAware Transoceanic
11:15AM 32.1953 -68.4270 168° South 486 559 38,000  Level FlightAware Transoceanic
11:16AM 32.0627 -68.3945 168° South 486 559 38,000  Level FlightAware Transoceanic
11:17AM 31.9302 -68.3621 168° South 486 559 38,000  Level FlightAware Transoceanic
11:18AM 31.7977 -68.3298 168° South 486 559 38,000  Level FlightAware Transoceanic
11:19AM 31.6651 -68.2975 168° South 486 559 38,000  Level FlightAware Transoceanic
11:20AM 31.5326 -68.2654 168° South 486 559 38,000  Level FlightAware Transoceanic
11:21AM 31.4000 -68.2333 168° South 486 559 38,000  Level FlightAware Transoceanic
11:22AM 31.2786 -68.2041 168° South 486 559 38,000  Level FlightAware Transoceanic
11:23AM 31.1571 -68.1749 168° South 486 559 38,000  Level FlightAware Transoceanic
11:24AM 31.0357 -68.1458 168° South 486 559 38,000  Level FlightAware Transoceanic
11:25AM 30.9142 -68.1168 168° South 486 559 38,000 600 Level FlightAware Transoceanic
11:25AM 31.4000 -68.2333 168° South 438 504 39,000  Climbing New York Oceanic (ODAPS)
11:26AM 30.7928 -68.0879 168° South 486 559 38,000 -780 Descending FlightAware Transoceanic
11:27AM 30.6713 -68.0590 168° South 486 559 38,000  Level FlightAware Transoceanic
11:28AM 30.5498 -68.0302 168° South 486 559 38,000  Level FlightAware Transoceanic
11:29AM 30.4283 -68.0015 168° South 486 559 38,000  Level FlightAware Transoceanic
11:30AM 30.3069 -67.9728 169° South 486 559 38,000 480 Level FlightAware Transoceanic
11:31AM 30.3209 -67.9761 169° South 438 504 39,000 480 Climbing FlightAware Transoceanic
11:32AM 30.2009 -67.9479 169° South 438 504 39,000  Level FlightAware Transoceanic
11:33AM 30.0810 -67.9198 169° South 438 504 39,000  Level FlightAware Transoceanic
11:34AM 29.9611 -67.8917 169° South 438 504 39,000  Level FlightAware Transoceanic
11:35AM 29.8411 -67.8637 169° South 438 504 39,000  Level FlightAware Transoceanic
11:36AM 29.7211 -67.8357 169° South 438 504 39,000  Level FlightAware Transoceanic
11:37AM 29.6012 -67.8078 169° South 438 504 39,000  Level FlightAware Transoceanic
11:38AM 29.4812 -67.7800 169° South 438 504 39,000  Level FlightAware Transoceanic
11:39AM 29.3612 -67.7522 169° South 438 504 39,000  Level FlightAware Transoceanic
11:40AM 29.2413 -67.7246 169° South 438 504 39,000  Level FlightAware Transoceanic
11:41AM 29.1213 -67.6969 169° South 438 504 39,000  Level FlightAware Transoceanic
11:42AM 29.0013 -67.6694 169° South 438 504 39,000  Level FlightAware Transoceanic
11:43AM 28.8813 -67.6419 169° South 438 504 39,000  Level FlightAware Transoceanic
11:44AM 28.7613 -67.6144 169° South 438 504 39,000  Level FlightAware Transoceanic
11:45AM 28.6413 -67.5871 169° South 438 504 39,000  Level FlightAware Transoceanic
11:46AM 28.5212 -67.5598 169° South 438 504 39,000  Level FlightAware Transoceanic
11:47AM 28.4012 -67.5325 169° South 438 504 39,000  Level FlightAware Transoceanic
11:48AM 28.2812 -67.5053 169° South 438 504 39,000  Level FlightAware Transoceanic
11:49AM 28.1612 -67.4782 169° South 438 504 39,000  Level FlightAware Transoceanic
11:50AM 28.0411 -67.4512 169° South 438 504 39,000  Level FlightAware Transoceanic
11:51AM 27.9211 -67.4242 169° South 438 504 39,000  Level FlightAware Transoceanic
11:52AM 27.8011 -67.3972 169° South 438 504 39,000  Level FlightAware Transoceanic
11:53AM 27.6810 -67.3703 169° South 438 504 39,000  Level FlightAware Transoceanic
11:54AM 27.5609 -67.3435 169° South 438 504 39,000  Level FlightAware Transoceanic
11:55AM 27.4409 -67.3168 169° South 438 504 39,000  Level FlightAware Transoceanic
11:56AM 27.3208 -67.2900 169° South 438 504 39,000  Level FlightAware Transoceanic
11:57AM 27.2007 -67.2634 169° South 438 504 39,000  Level FlightAware Transoceanic
11:58AM 27.0807 -67.2368 169° South 438 504 39,000  Level FlightAware Transoceanic
11:58AM 27.0833 -67.2500 169° South 446 513 39,000  Level New York Oceanic (ODAPS)
11:59AM 26.9606 -67.2103 169° South 438 504 39,000  Level FlightAware Transoceanic
12:00PM 26.8405 -67.1838 169° South 438 504 39,000  Level FlightAware Transoceanic
12:01PM 26.7204 -67.1574 169° South 438 504 39,000  Level FlightAware Transoceanic
12:02PM 26.6003 -67.1310 169° South 438 504 39,000  Level FlightAware Transoceanic
12:03PM 26.4802 -67.1047 169° South 438 504 39,000  Level FlightAware Transoceanic
12:04PM 26.3601 -67.0785 169° South 438 504 39,000  Level FlightAware Transoceanic
12:05PM 26.2422 -67.0632 169° South 446 513 39,000  Level FlightAware Transoceanic
12:06PM 26.1220 -67.0367 169° South 446 513 39,000  Level FlightAware Transoceanic
12:07PM 26.0019 -67.0103 169° South 446 513 39,000  Level FlightAware Transoceanic
12:08PM 25.8817 -66.9839 169° South 446 513 39,000  Level FlightAware Transoceanic
12:09PM 25.7615 -66.9576 169° South 446 513 39,000  Level FlightAware Transoceanic
12:10PM 25.6413 -66.9314 169° South 446 513 39,000  Level FlightAware Transoceanic
12:11PM 25.5211 -66.9052 169° South 446 513 39,000  Level FlightAware Transoceanic
12:12PM 25.4009 -66.8790 169° South 446 513 39,000  Level FlightAware Transoceanic
12:13PM 25.2807 -66.8529 169° South 446 513 39,000  Level FlightAware Transoceanic
12:14PM 25.1604 -66.8269 169° South 446 513 39,000  Level FlightAware Transoceanic
12:15PM 25.0402 -66.8009 169° South 446 513 39,000  Level FlightAware Transoceanic
12:16PM 24.9200 -66.7749 169° South 446 513 39,000  Level FlightAware Transoceanic
12:17PM 24.7998 -66.7490 169° South 446 513 39,000  Level FlightAware Transoceanic
12:18PM 24.6795 -66.7232 169° South 446 513 39,000  Level FlightAware Transoceanic
12:19PM 24.5593 -66.6974 169° South 446 513 39,000  Level FlightAware Transoceanic
12:20PM 24.4391 -66.6717 169° South 446 513 39,000  Level FlightAware Transoceanic
12:21PM 24.3188 -66.6460 169° South 446 513 39,000  Level FlightAware Transoceanic
12:22PM 24.1986 -66.6203 169° South 446 513 39,000  Level FlightAware Transoceanic
12:23PM 24.0783 -66.5947 169° South 446 513 39,000  Level FlightAware Transoceanic
12:24PM 23.9580 -66.5692 169° South 446 513 39,000  Level FlightAware Transoceanic
12:25PM 23.8378 -66.5437 169° South 446 513 39,000  Level FlightAware Transoceanic
12:26PM 23.7175 -66.5182 169° South 446 513 39,000  Level FlightAware Transoceanic
12:27PM 23.5972 -66.4928 169° South 446 513 39,000  Level FlightAware Transoceanic
12:28PM 23.4770 -66.4675 169° South 446 513 39,000  Level FlightAware Transoceanic
12:29PM 23.3567 -66.4422 169° South 446 513 39,000  Level FlightAware Transoceanic
12:30PM 23.2364 -66.4169 169° South 446 513 39,000  Level FlightAware Transoceanic
12:31PM 23.1161 -66.3917 169° South 446 513 39,000  Level FlightAware Transoceanic
12:32PM 22.9958 -66.3665 169° South 446 513 39,000  Level FlightAware Transoceanic
12:33PM 22.8755 -66.3414 169° South 446 513 39,000  Level FlightAware Transoceanic
12:34PM 22.7552 -66.3163 169° South 446 513 39,000  Level FlightAware Transoceanic
12:34PM 22.9167 -66.3500 169° South 465 535 39,000  Level New York Oceanic (ODAPS)
12:35PM 22.6349 -66.2912 169° South 446 513 39,000  Level FlightAware Transoceanic
12:36PM 22.5146 -66.2662 169° South 446 513 39,000  Level FlightAware Transoceanic
12:37PM 22.3943 -66.2413 169° South 446 513 39,000  Level FlightAware Transoceanic
12:38PM 22.2740 -66.2164 169° South 446 513 39,000  Level FlightAware Transoceanic
12:38PM 22.2333 -66.2167 169° South 410 472 39,000  Level San Juan Center
12:39PM 22.1537 -66.1915 169° South 446 513 39,000  Level FlightAware Transoceanic
12:40PM 22.0333 -66.1667 169° South 465 535 39,000  Level FlightAware Transoceanic
12:40PM 22.0833 -66.1667 163° South 420 483 39,000  Level San Juan Center
12:41PM 21.9200 -66.1433 169° South 465 535 39,000  Level FlightAware Transoceanic
12:42PM 21.8067 -66.1199 169° South 465 535 39,000  Level FlightAware Transoceanic
12:42PM 21.8667 -66.1333 172° South 420 483 39,000  Level San Juan Center
12:43PM 21.6933 -66.0966 169° South 465 535 39,000  Level FlightAware Transoceanic
12:43PM 21.7333 -66.1000 167° South 430 495 39,000  Level San Juan Center
12:44PM 21.5800 -66.0733 169° South 465 535 39,000  Level FlightAware Transoceanic
12:44PM 21.6167 -66.0667 165° South 430 495 39,000  Level San Juan Center
12:45PM 21.5000 -66.0333 165° South 440 506 39,000  Level San Juan Center
12:46PM 21.3833 -66.0167 172° South 430 495 39,000  Level San Juan Center
12:47PM 21.2667 -65.9833 165° South 440 506 39,000  Level San Juan Center
12:48PM 21.1500 -65.9500 165° South 430 495 39,000  Level San Juan Center
12:49PM 21.0167 -65.9167 167° South 440 506 39,000  Level San Juan Center
12:50PM 20.9000 -65.9000 172° South 430 495 39,000  Level San Juan Center
12:51PM 20.7833 -65.8667 165° South 430 495 39,000  Level San Juan Center
12:52PM 20.6667 -65.8333 165° South 430 495 39,000  Level San Juan Center
12:53PM 20.5500 -65.8000 165° South 430 495 39,000  Level San Juan Center
12:54PM 20.4333 -65.7833 172° South 430 495 39,000 -60 Level San Juan Center
12:55PM 20.3167 -65.7500 165° South 430 495 38,900 -60 Descending San Juan Center
12:56PM 20.2000 -65.7167 165° South 430 495 38,900 -960 Level San Juan Center
12:57PM 20.0833 -65.7000 172° South 410 472 37,000 -2,340 Descending San Juan Center
12:58PM 19.9833 -65.6667 163° South 410 472 34,200 -2,400 Descending San Juan Center
12:59PM 19.8667 -65.6333 165° South 410 472 32,200 -1,980 Descending San Juan Center
01:00PM 19.7500 -65.6167 172° South 400 460 30,300 -1,920 Descending San Juan Center
01:01PM 19.6500 -65.5833 163° South 400 460 28,400 -1,920 Descending San Juan Center
01:02PM 19.5333 -65.5667 172° South 400 460 26,500 -1,980 Descending San Juan Center
01:03PM 19.4333 -65.5333 163° South 380 437 24,500 -1,920 Descending San Juan Center
01:04PM 19.3333 -65.5167 171° South 370 426 22,700 -1,740 Descending San Juan Center
01:05PM 19.2333 -65.5000 171° South 360 414 21,000 -1,740 Descending San Juan Center
01:06PM 19.1333 -65.4667 163° South 350 403 19,300 -1,740 Descending San Juan Center
01:07PM 19.0333 -65.4500 171° South 350 403 17,600 -1,740 Descending San Juan Center
01:08PM 18.9333 -65.4167 162° South 340 391 15,800 -1,680 Descending San Juan Center
01:09PM 18.8500 -65.4000 169° South 330 380 14,300 -1,620 Descending San Juan Center
01:10PM 18.7667 -65.3667 159° South 310 357 12,600 -1,740 Descending San Juan Center
01:11PM 18.6833 -65.3333 159° South 300 345 10,900 -1,620 Descending San Juan Center
01:12PM 18.6167 -65.3000 155° Southeast 300 345 9,400 -900 Descending San Juan Center
01:13PM 18.5500 -65.2667 155° Southeast 250 288 9,100 -1,200 Descending San Juan Center
01:14PM 18.4833 -65.2500 167° South 210 242 7,100 -1,320 Descending San Juan Center
01:15PM 18.4333 -65.2167 148° Southeast 200 230 6,500 -720 Descending San Juan Center
01:16PM 18.3833 -65.2000 162° South 180 207 5,700 -1,020 Descending San Juan Center
01:17PM 18.3333 -65.2167 198° South 180 207 4,500 -1,260 Descending San Juan Center
01:18PM 18.3000 -65.2333 205° Southwest 170 196 3,200 -900 Descending San Juan Center
01:19PM 18.3167 -65.1833 71° East 180 207 2,800 -240 Descending San Juan Center
01:20PM 18.3167 -65.1333 90° East 160 184 2,800  Level San Juan Center